Time;durP1;ratioP1;P1;durP2;ratioP2;P2;SDS_P1;SDS_P2;PMS_P1;PMS_P2;Temp;Humidity;BMP_temperature;BMP_pressure;BME280_temperature;BME280_humidity;BME280_pressure;Samples;Min_cycle;Max_cycle;Signal;HPM_P1;HPM_P2
2022/11/20 00:00:55;;;;;;;3.05;2.85;;;6.00;99.90;;;;;;5067177;28;20226;-75
2022/11/20 00:03:22;;;;;;;2.95;2.75;;;6.00;99.90;;;;;;5063015;28;20218;-74
2022/11/20 00:05:50;;;;;;;3.00;2.85;;;6.00;99.90;;;;;;5065833;28;20202;-75
2022/11/20 00:08:17;;;;;;;2.85;2.65;;;5.90;99.90;;;;;;5068342;28;20226;-76
2022/11/20 00:10:44;;;;;;;5.43;2.80;;;5.90;99.90;;;;;;5067597;28;20205;-76
2022/11/20 00:13:13;;;;;;;2.85;2.65;;;5.80;99.90;;;;;;5065691;28;20233;-76
2022/11/20 00:15:41;;;;;;;2.90;2.70;;;5.80;99.90;;;;;;5048462;28;20198;-75
2022/11/20 00:18:08;;;;;;;2.40;2.30;;;5.80;99.90;;;;;;5064986;28;20225;-75
2022/11/20 00:20:35;;;;;;;2.15;2.05;;;5.80;99.90;;;;;;5067460;28;20218;-77
2022/11/20 00:23:03;;;;;;;2.80;2.55;;;5.80;99.90;;;;;;5064016;28;20229;-75
2022/11/20 00:25:31;;;;;;;2.47;2.38;;;5.80;99.90;;;;;;5060792;28;20224;-76
2022/11/20 00:27:58;;;;;;;2.88;2.67;;;5.80;99.90;;;;;;5081550;28;20221;-76
2022/11/20 00:30:27;;;;;;;2.40;2.30;;;5.80;99.90;;;;;;5072428;28;20202;-76
2022/11/20 00:32:57;;;;;;;2.45;2.35;;;5.80;99.90;;;;;;5061287;28;20225;-75
2022/11/20 00:35:24;;;;;;;2.25;2.15;;;5.80;99.90;;;;;;5067709;28;20217;-75
2022/11/20 00:37:51;;;;;;;2.50;2.40;;;5.80;99.90;;;;;;5064514;28;20218;-75
2022/11/20 00:40:19;;;;;;;2.70;2.50;;;5.70;99.90;;;;;;5062579;28;20395;-75
2022/11/20 00:42:46;;;;;;;2.30;2.20;;;5.70;99.90;;;;;;5049829;28;20218;-75
2022/11/20 00:45:13;;;;;;;2.55;2.45;;;5.60;99.90;;;;;;5065132;28;20594;-75
2022/11/20 00:47:42;;;;;;;2.92;2.80;;;5.60;99.90;;;;;;5068894;28;20290;-75
2022/11/20 00:50:10;;;;;;;2.67;2.55;;;5.60;99.90;;;;;;5065352;28;20209;-75
2022/11/20 00:52:38;;;;;;;2.10;2.00;;;5.60;99.90;;;;;;5048024;28;20218;-76
2022/11/20 00:55:07;;;;;;;2.20;2.10;;;5.60;99.90;;;;;;5070217;28;20233;-75
2022/11/20 00:57:34;;;;;;;2.33;2.22;;;5.60;99.90;;;;;;5064578;28;20221;-75
2022/11/20 01:00:01;;;;;;;2.50;2.40;;;5.60;99.90;;;;;;5062850;28;20666;-77
2022/11/20 01:02:28;;;;;;;2.33;2.22;;;5.60;99.90;;;;;;5063224;28;20226;-75
2022/11/20 01:04:57;;;;;;;2.42;2.33;;;5.50;99.90;;;;;;5046510;28;20227;-73
2022/11/20 01:07:24;;;;;;;2.20;2.10;;;5.50;99.90;;;;;;5067114;28;20224;-74
2022/11/20 01:09:52;;;;;;;2.22;2.13;;;5.50;99.90;;;;;;5066418;28;20195;-73
2022/11/20 01:12:19;;;;;;;2.35;2.25;;;5.50;99.90;;;;;;5063711;28;20722;-74
2022/11/20 01:14:48;;;;;;;2.40;2.30;;;5.50;99.90;;;;;;5047862;28;20202;-74
2022/11/20 01:17:15;;;;;;;2.40;2.30;;;5.50;99.90;;;;;;5082924;28;20609;-75
2022/11/20 01:19:42;;;;;;;2.85;2.60;;;5.50;99.90;;;;;;5066335;28;20191;-73
2022/11/20 01:22:11;;;;;;;2.30;2.20;;;5.50;99.90;;;;;;5069198;28;20691;-74
2022/11/20 01:24:40;;;;;;;2.55;2.45;;;5.50;99.90;;;;;;5068035;28;20202;-75
2022/11/20 01:27:07;;;;;;;2.55;2.45;;;5.50;99.90;;;;;;5071516;28;20663;-75
2022/11/20 01:29:34;;;;;;;2.30;2.20;;;5.50;99.90;;;;;;5070516;28;20198;-75
2022/11/20 01:32:01;;;;;;;2.22;2.13;;;5.50;99.90;;;;;;5067973;28;20210;-76
2022/11/20 01:34:29;;;;;;;2.45;2.35;;;5.50;99.90;;;;;;5067399;28;20225;-75
2022/11/20 01:36:56;;;;;;;2.40;2.30;;;5.40;99.90;;;;;;5050752;28;20224;-75
2022/11/20 01:39:27;;;;;;;2.65;2.50;;;5.40;99.90;;;;;;5076471;28;20194;-75
2022/11/20 01:44:59;;;;;;;2.40;2.30;;;5.40;99.90;;;;;;5067973;28;20201;-74
2022/11/20 01:47:34;;;;;;;2.53;2.42;;;5.40;99.90;;;;;;5067708;28;20239;-76
2022/11/20 01:50:07;;;;;;;2.58;2.47;;;5.40;99.90;;;;;;5069037;28;20194;-75
2022/11/20 01:52:39;;;;;;;2.38;2.28;;;5.40;99.90;;;;;;5067485;28;20217;-74
2022/11/20 01:55:11;;;;;;;2.30;2.20;;;5.40;99.90;;;;;;5068299;28;20693;-74
2022/11/20 01:57:41;;;;;;;2.45;2.35;;;5.40;99.90;;;;;;5067066;28;20214;-73
2022/11/20 02:00:10;;;;;;;2.40;2.30;;;5.40;99.90;;;;;;5066549;28;20668;-76
2022/11/20 02:02:40;;;;;;;2.42;2.33;;;5.40;99.90;;;;;;5069816;28;20242;-74
2022/11/20 02:05:19;;;;;;;2.88;2.67;;;5.40;99.90;;;;;;5071189;28;20209;-74
2022/11/20 02:07:47;;;;;;;2.42;2.33;;;5.40;99.90;;;;;;5068922;28;20223;-74
2022/11/20 02:10:16;;;;;;;2.80;2.67;;;5.30;99.90;;;;;;5049870;28;20259;-74
2022/11/20 02:15:28;;;;;;;2.47;2.33;;;5.30;99.90;;;;;;5068819;28;20201;-74
2022/11/20 02:17:56;;;;;;;2.78;2.58;;;5.30;99.90;;;;;;5045971;28;20211;-74
2022/11/20 02:20:23;;;;;;;2.67;2.58;;;5.30;99.90;;;;;;5070485;28;20206;-75
2022/11/20 02:22:59;;;;;;;2.28;2.17;;;5.30;99.90;;;;;;5067875;28;20215;-76
2022/11/20 02:25:29;;;;;;;2.45;2.35;;;5.30;99.90;;;;;;5065691;28;20220;-75
2022/11/20 02:27:56;;;;;;;2.60;2.50;;;5.30;99.90;;;;;;5062460;28;20215;-75
2022/11/20 02:30:24;;;;;;;2.13;2.03;;;5.30;99.90;;;;;;5085202;28;20199;-75
2022/11/20 02:32:51;;;;;;;2.50;2.40;;;5.30;99.90;;;;;;5066778;28;20226;-77
2022/11/20 02:35:41;;;;;;;2.30;2.20;;;5.30;99.90;;;;;;5067810;28;20210;-75
2022/11/20 02:38:09;;;;;;;2.58;2.47;;;5.30;99.90;;;;;;5066813;28;20291;-76
2022/11/20 02:40:38;;;;;;;2.35;2.25;;;5.20;99.90;;;;;;5070691;28;20222;-76
2022/11/20 02:43:06;;;;;;;2.50;2.40;;;5.30;99.90;;;;;;5070401;28;20225;-75
2022/11/20 02:45:33;;;;;;;2.15;2.05;;;5.20;99.90;;;;;;5067257;28;20199;-75
2022/11/20 02:48:01;;;;;;;2.38;2.28;;;5.20;99.90;;;;;;5064544;28;20300;-76
2022/11/20 02:50:28;;;;;;;2.40;2.30;;;5.20;99.90;;;;;;5071600;28;20202;-78
2022/11/20 02:52:56;;;;;;;2.22;2.13;;;5.20;99.90;;;;;;5078357;28;20222;-78
2022/11/20 02:55:24;;;;;;;2.60;2.40;;;5.20;99.90;;;;;;5067376;28;21276;-76
2022/11/20 02:57:53;;;;;;;2.50;2.40;;;5.10;99.90;;;;;;5068772;28;20313;-77
2022/11/20 03:00:20;;;;;;;2.53;2.33;;;5.10;99.90;;;;;;5052263;28;20202;-78
2022/11/20 03:02:48;;;;;;;3.10;2.83;;;5.10;99.90;;;;;;5047886;28;20222;-75
2022/11/20 03:05:15;;;;;;;2.70;2.60;;;5.00;99.90;;;;;;5069980;28;20198;-76
2022/11/20 03:07:44;;;;;;;2.67;2.47;;;5.00;99.90;;;;;;5052756;28;20706;-78
2022/11/20 03:10:12;;;;;;;2.40;2.30;;;4.90;99.90;;;;;;5064794;28;20214;-77
2022/11/20 03:12:39;;;;;;;2.58;2.45;;;5.00;99.90;;;;;;5051752;28;20230;-76
2022/11/20 03:15:10;;;;;;;3.00;2.80;;;5.00;99.90;;;;;;5067753;28;20202;-79
2022/11/20 03:17:37;;;;;;;3.15;2.95;;;5.00;99.90;;;;;;5079129;28;20706;-76
2022/11/20 03:20:05;;;;;;;2.83;2.63;;;5.00;99.90;;;;;;5064874;28;20202;-76
2022/11/20 03:22:32;;;;;;;2.92;2.72;;;5.00;99.90;;;;;;5067748;28;20217;-76
2022/11/20 03:25:00;;;;;;;2.85;2.65;;;5.00;99.90;;;;;;5064953;28;20199;-77
2022/11/20 03:27:27;;;;;;;2.38;2.25;;;5.00;99.90;;;;;;5065623;28;20262;-76
2022/11/20 03:29:54;;;;;;;2.70;2.50;;;5.00;99.90;;;;;;5069766;28;20202;-76
2022/11/20 03:32:23;;;;;;;2.53;2.42;;;5.00;99.90;;;;;;5067193;28;20218;-76
2022/11/20 03:34:52;;;;;;;2.58;2.45;;;5.00;99.90;;;;;;5069083;28;20263;-75
2022/11/20 03:37:19;;;;;;;3.00;2.80;;;5.00;99.90;;;;;;5069029;28;20234;-78
2022/11/20 03:39:47;;;;;;;2.90;2.80;;;5.00;99.90;;;;;;5067471;28;20194;-74
2022/11/20 03:44:55;;;;;;;2.90;2.70;;;5.00;99.90;;;;;;5052686;28;20194;-76
2022/11/20 03:47:24;;;;;;;2.40;2.22;;;4.90;99.90;;;;;;5065230;28;20225;-76
2022/11/20 03:49:51;;;;;;;2.67;2.58;;;4.90;99.90;;;;;;5051586;28;20244;-76
2022/11/20 03:52:18;;;;;;;2.50;2.40;;;4.80;99.90;;;;;;5064572;28;20229;-75
2022/11/20 03:54:45;;;;;;;2.60;2.50;;;4.80;99.90;;;;;;5043801;28;20198;-77
2022/11/20 03:57:12;;;;;;;2.30;2.20;;;4.80;99.90;;;;;;5062072;28;20214;-77
2022/11/20 03:59:40;;;;;;;2.38;2.28;;;4.70;99.90;;;;;;5081328;28;20211;-77
2022/11/20 04:02:07;;;;;;;2.60;2.50;;;4.70;99.90;;;;;;5049822;28;20222;-77
2022/11/20 04:04:36;;;;;;;2.55;2.45;;;4.70;99.90;;;;;;5073167;28;20190;-77
2022/11/20 04:07:04;;;;;;;2.38;2.28;;;4.70;99.90;;;;;;5065230;28;20222;-79
2022/11/20 04:09:31;;;;;;;2.65;2.47;;;4.70;99.90;;;;;;5064351;28;20198;-80
2022/11/20 04:11:58;;;;;;;2.55;2.45;;;4.70;99.90;;;;;;5064724;28;20241;-77
2022/11/20 04:14:26;;;;;;;2.65;2.55;;;4.60;99.90;;;;;;5065685;28;20221;-77
2022/11/20 04:16:53;;;;;;;2.50;2.40;;;4.70;99.90;;;;;;5048869;28;20233;-77
2022/11/20 04:19:21;;;;;;;2.47;2.38;;;4.70;99.90;;;;;;5063676;28;20202;-78
2022/11/20 04:21:50;;;;;;;2.50;2.40;;;4.70;99.90;;;;;;5064892;28;20229;-77
2022/11/20 04:24:17;;;;;;;2.30;2.20;;;4.70;99.90;;;;;;5067522;28;20225;-76
2022/11/20 04:26:44;;;;;;;2.50;2.40;;;4.80;99.90;;;;;;5062017;28;20195;-75
2022/11/20 04:29:12;;;;;;;2.40;2.30;;;4.80;99.90;;;;;;5063923;28;20205;-77
2022/11/20 04:31:39;;;;;;;2.50;2.40;;;4.80;99.90;;;;;;5078524;28;20194;-77
2022/11/20 04:34:08;;;;;;;2.50;2.40;;;4.70;99.90;;;;;;5061211;28;20222;-75
2022/11/20 04:36:37;;;;;;;2.50;2.40;;;4.70;99.90;;;;;;5065621;28;20198;-75
2022/11/20 04:39:07;;;;;;;2.50;2.40;;;4.70;99.90;;;;;;5064166;28;20240;-78
2022/11/20 04:41:36;;;;;;;2.42;2.33;;;4.70;99.90;;;;;;5063837;28;20707;-76
2022/11/20 04:44:07;;;;;;;2.50;2.40;;;4.70;99.90;;;;;;5074387;28;20583;-77
2022/11/20 04:46:37;;;;;;;2.60;2.50;;;4.70;99.90;;;;;;5054807;28;20287;-79
2022/11/20 04:49:05;;;;;;;2.30;2.20;;;4.60;99.90;;;;;;5064422;28;20198;-79
2022/11/20 04:51:33;;;;;;;2.70;2.60;;;4.60;99.90;;;;;;5068019;28;20313;-79
2022/11/20 04:54:00;;;;;;;2.22;2.13;;;4.60;99.90;;;;;;5070277;28;20214;-80
2022/11/20 04:56:29;;;;;;;2.55;2.45;;;4.60;99.90;;;;;;5083615;28;20252;-77
2022/11/20 04:58:56;;;;;;;2.50;2.40;;;4.60;99.90;;;;;;5070567;28;20228;-79
2022/11/20 05:01:25;;;;;;;2.60;2.50;;;4.60;99.90;;;;;;5070120;28;20678;-77
2022/11/20 05:03:53;;;;;;;2.25;2.15;;;4.50;99.90;;;;;;5051613;28;20229;-74
2022/11/20 05:06:22;;;;;;;2.40;2.30;;;4.50;99.90;;;;;;5071060;28;20206;-75
2022/11/20 05:08:49;;;;;;;2.70;2.60;;;4.50;99.90;;;;;;5070471;28;20267;-76
2022/11/20 05:11:18;;;;;;;2.80;2.70;;;4.50;99.90;;;;;;5070776;28;20202;-76
2022/11/20 05:13:47;;;;;;;2.50;2.40;;;4.50;99.90;;;;;;5070873;28;20230;-77
2022/11/20 05:16:16;;;;;;;2.50;2.40;;;4.50;99.90;;;;;;5071583;28;20205;-80
2022/11/20 05:18:43;;;;;;;2.40;2.30;;;4.40;99.90;;;;;;5072465;28;20253;-77
2022/11/20 05:21:11;;;;;;;2.20;2.10;;;4.40;99.90;;;;;;5072238;28;20198;-80
2022/11/20 05:23:41;;;;;;;2.63;2.53;;;4.40;99.90;;;;;;5067367;28;20218;-80
2022/11/20 05:26:13;;;;;;;2.40;2.30;;;4.30;99.90;;;;;;5069384;28;20656;-76
2022/11/20 05:28:41;;;;;;;2.78;2.67;;;4.30;99.90;;;;;;5066084;28;20241;-78
2022/11/20 05:31:12;;;;;;;2.47;2.38;;;4.20;99.90;;;;;;5072210;28;20198;-75
2022/11/20 05:33:42;;;;;;;2.72;2.63;;;4.20;99.90;;;;;;5070212;28;20216;-75
2022/11/20 05:36:10;;;;;;;2.40;2.30;;;4.10;99.90;;;;;;5071524;28;20655;-76
2022/11/20 05:38:37;;;;;;;2.47;2.38;;;4.10;99.90;;;;;;5068691;28;20214;-78
2022/11/20 05:41:06;;;;;;;2.30;2.20;;;4.20;99.90;;;;;;5063092;28;20195;-77
2022/11/20 05:43:35;;;;;;;2.58;2.47;;;4.20;99.90;;;;;;5070757;28;20234;-75
2022/11/20 05:46:03;;;;;;;2.42;2.33;;;4.20;99.90;;;;;;5071141;28;20206;-79
2022/11/20 05:48:32;;;;;;;2.40;2.30;;;4.20;99.90;;;;;;5047163;28;20226;-77
2022/11/20 05:51:02;;;;;;;2.40;2.30;;;4.20;99.90;;;;;;5052301;28;20198;-79
2022/11/20 05:53:30;;;;;;;2.47;2.38;;;4.20;99.90;;;;;;5067575;28;20226;-78
2022/11/20 05:55:59;;;;;;;2.60;2.50;;;4.20;99.90;;;;;;5057403;28;20542;-77
2022/11/20 05:58:27;;;;;;;3.15;2.95;;;4.20;99.90;;;;;;5050792;28;20223;-78
2022/11/20 06:00:54;;;;;;;3.15;2.97;;;4.20;99.90;;;;;;5070601;28;20199;-79
2022/11/20 06:03:21;;;;;;;2.70;2.60;;;4.20;99.90;;;;;;5072177;28;20214;-82
2022/11/20 06:05:50;;;;;;;2.95;2.75;;;4.10;99.90;;;;;;5051143;28;20551;-78
2022/11/20 06:08:18;;;;;;;2.60;2.50;;;4.10;99.90;;;;;;5068497;28;20218;-80
2022/11/20 06:10:46;;;;;;;2.90;2.80;;;4.10;99.90;;;;;;5051517;28;20198;-77
2022/11/20 06:13:13;;;;;;;2.80;2.70;;;4.10;99.90;;;;;;5065363;28;20275;-76
2022/11/20 06:15:41;;;;;;;2.80;2.70;;;4.10;99.90;;;;;;5069076;28;20213;-75
2022/11/20 06:18:08;;;;;;;3.00;2.80;;;4.10;99.90;;;;;;5069470;28;20225;-78
2022/11/20 06:20:35;;;;;;;2.92;2.80;;;4.10;99.90;;;;;;5066934;28;20201;-75
2022/11/20 06:23:05;;;;;;;2.50;2.40;;;4.10;99.90;;;;;;5068254;28;20229;-79
2022/11/20 06:25:32;;;;;;;2.63;2.53;;;4.10;99.90;;;;;;5071860;28;20670;-76
2022/11/20 06:27:59;;;;;;;2.92;2.80;;;4.10;99.90;;;;;;5064700;28;20217;-79
2022/11/20 06:30:27;;;;;;;2.65;2.55;;;4.10;99.90;;;;;;5074460;28;20567;-76
2022/11/20 06:32:54;;;;;;;2.65;2.55;;;4.10;99.90;;;;;;5069403;28;20706;-77
2022/11/20 06:35:21;;;;;;;2.75;2.65;;;4.10;99.90;;;;;;5068328;28;20690;-75
2022/11/20 06:37:50;;;;;;;2.35;2.25;;;4.10;99.90;;;;;;5066752;28;20268;-78
2022/11/20 06:40:19;;;;;;;2.67;2.58;;;4.00;99.90;;;;;;5068971;28;20597;-75
2022/11/20 06:42:47;;;;;;;2.50;2.40;;;4.00;99.90;;;;;;5067258;28;20707;-75
2022/11/20 06:45:14;;;;;;;3.17;2.90;;;4.00;99.90;;;;;;5068256;28;20627;-77
2022/11/20 06:47:41;;;;;;;3.00;2.90;;;4.00;99.90;;;;;;5055013;28;20273;-78
2022/11/20 06:50:09;;;;;;;2.90;2.80;;;4.00;99.90;;;;;;5062116;28;20268;-77
2022/11/20 06:52:36;;;;;;;2.92;2.83;;;4.00;99.90;;;;;;5068867;28;20221;-75
2022/11/20 06:55:05;;;;;;;2.60;2.50;;;4.00;99.90;;;;;;5069622;28;20206;-74
2022/11/20 06:57:35;;;;;;;3.10;2.92;;;4.00;99.90;;;;;;5068314;28;20214;-75
2022/11/20 07:00:02;;;;;;;2.85;2.75;;;4.00;99.90;;;;;;5069353;28;20194;-75
2022/11/20 07:02:30;;;;;;;2.53;2.42;;;4.10;99.90;;;;;;5063289;28;20222;-74
2022/11/20 07:04:57;;;;;;;2.55;2.45;;;4.10;99.90;;;;;;5074986;28;20202;-77
2022/11/20 07:07:25;;;;;;;2.70;2.60;;;4.00;99.90;;;;;;5070345;28;20772;-79
2022/11/20 07:09:52;;;;;;;2.22;2.13;;;4.10;99.90;;;;;;5062842;28;20245;-78
2022/11/20 07:12:19;;;;;;;2.35;2.25;;;4.10;99.90;;;;;;5047349;28;20234;-75
2022/11/20 07:14:48;;;;;;;2.78;2.60;;;4.10;99.90;;;;;;5068821;28;20191;-75
2022/11/20 07:17:17;;;;;;;2.70;2.60;;;4.10;99.90;;;;;;5068633;28;20229;-77
2022/11/20 07:19:47;;;;;;;2.60;2.50;;;4.10;99.90;;;;;;5063828;28;20202;-78
2022/11/20 07:22:14;;;;;;;2.53;2.42;;;4.10;99.90;;;;;;5069279;28;20222;-76
2022/11/20 07:24:42;;;;;;;2.78;2.67;;;4.20;99.90;;;;;;5050748;28;20197;-76
2022/11/20 07:27:09;;;;;;;2.80;2.70;;;4.10;99.90;;;;;;5067813;28;20221;-76
2022/11/20 07:29:36;;;;;;;3.30;3.10;;;4.20;99.90;;;;;;5067757;28;20695;-75
2022/11/20 07:32:05;;;;;;;3.10;3.00;;;4.20;99.90;;;;;;5068434;28;20218;-77
2022/11/20 07:34:33;;;;;;;2.97;2.88;;;4.20;99.90;;;;;;5067713;28;20287;-77
2022/11/20 07:37:00;;;;;;;2.70;2.60;;;4.30;99.90;;;;;;5066570;28;20635;-78
2022/11/20 07:39:28;;;;;;;3.03;2.90;;;4.40;99.90;;;;;;5051533;28;20213;-74
2022/11/20 07:41:55;;;;;;;3.05;2.95;;;4.40;99.90;;;;;;5063858;28;20222;-75
2022/11/20 07:44:23;;;;;;;3.00;2.80;;;4.40;99.90;;;;;;5069830;28;20523;-76
2022/11/20 07:46:50;;;;;;;3.15;3.05;;;4.50;99.90;;;;;;5050239;28;20222;-76
2022/11/20 07:49:19;;;;;;;3.00;2.90;;;4.50;99.90;;;;;;5067887;28;20200;-75
2022/11/20 07:51:46;;;;;;;2.88;2.78;;;4.50;99.90;;;;;;5067920;28;20202;-75
2022/11/20 07:54:14;;;;;;;3.08;2.95;;;4.80;99.90;;;;;;5069251;28;20213;-75
2022/11/20 07:56:41;;;;;;;3.35;3.15;;;5.90;99.90;;;;;;5059993;28;20210;-77
2022/11/20 07:59:08;;;;;;;3.63;3.42;;;7.30;99.90;;;;;;5066035;28;20205;-77
2022/11/20 08:01:35;;;;;;;3.05;2.85;;;8.40;99.90;;;;;;5064715;28;20203;-75
2022/11/20 08:04:03;;;;;;;3.10;2.90;;;9.30;99.90;;;;;;5069615;28;20214;-77
2022/11/20 08:06:31;;;;;;;3.15;2.90;;;10.00;99.90;;;;;;5067647;28;20202;-75
2022/11/20 08:08:59;;;;;;;3.45;3.22;;;10.70;99.90;;;;;;5064778;28;20217;-75
2022/11/20 08:14:15;;;;;;;3.38;3.13;;;11.80;99.90;;;;;;5067390;28;20635;-75
2022/11/20 08:16:44;;;;;;;4.88;3.45;;;12.20;99.90;;;;;;5064047;28;20277;-78
2022/11/20 08:19:12;;;;;;;3.70;3.40;;;12.30;99.90;;;;;;5081242;28;20194;-77
2022/11/20 08:21:41;;;;;;;3.78;3.47;;;12.40;99.90;;;;;;5066499;28;20655;-78
2022/11/20 08:24:09;;;;;;;3.92;3.63;;;12.70;99.90;;;;;;5067646;28;20210;-79
2022/11/20 08:26:38;;;;;;;3.05;2.85;;;13.00;99.90;;;;;;5071987;28;20189;-79
2022/11/20 08:29:06;;;;;;;2.58;2.38;;;13.30;99.90;;;;;;5063571;28;20199;-78
2022/11/20 08:31:35;;;;;;;3.00;2.80;;;13.40;99.90;;;;;;5063471;28;20922;-80
2022/11/20 08:34:02;;;;;;;2.60;2.40;;;13.20;99.90;;;;;;5061553;28;20706;-76
2022/11/20 08:36:29;;;;;;;2.85;2.65;;;13.40;99.90;;;;;;5068463;28;20339;-77
2022/11/20 08:38:58;;;;;;;2.72;2.40;;;13.60;99.90;;;;;;5068893;28;20222;-78
2022/11/20 08:41:28;;;;;;;2.65;2.45;;;13.90;99.90;;;;;;5082254;28;20610;-77
2022/11/20 08:43:57;;;;;;;3.75;2.85;;;14.20;99.90;;;;;;5068232;28;20222;-76
2022/11/20 08:46:26;;;;;;;3.63;2.80;;;14.50;99.90;;;;;;5060416;28;20579;-76
2022/11/20 08:48:53;;;;;;;2.60;2.10;;;14.80;99.90;;;;;;5067298;28;20605;-77
2022/11/20 08:51:22;;;;;;;2.47;2.28;;;14.80;99.90;;;;;;5066973;28;20194;-78
2022/11/20 08:53:49;;;;;;;3.40;2.42;;;15.10;99.90;;;;;;5057726;28;20218;-76
2022/11/20 08:56:18;;;;;;;2.70;2.50;;;15.30;99.90;;;;;;5081143;28;20218;-76
2022/11/20 08:58:46;;;;;;;2.67;2.47;;;15.50;99.90;;;;;;5051849;28;20763;-78
2022/11/20 09:01:13;;;;;;;2.63;2.42;;;15.80;99.90;;;;;;5079818;28;20202;-76
2022/11/20 09:03:41;;;;;;;3.03;2.80;;;16.30;99.90;;;;;;5063123;28;20225;-77
2022/11/20 09:06:09;;;;;;;2.90;2.38;;;17.20;99.90;;;;;;5069920;28;20194;-75
2022/11/20 09:08:37;;;;;;;2.67;2.47;;;18.40;99.90;;;;;;5068310;28;20214;-75
2022/11/20 09:11:05;;;;;;;2.40;2.20;;;19.80;99.90;;;;;;5061314;28;20667;-82
2022/11/20 09:13:35;;;;;;;2.50;2.30;;;21.30;97.40;;;;;;5068851;28;20214;-75
2022/11/20 09:16:05;;;;;;;2.60;2.40;;;22.80;93.20;;;;;;5061138;28;20199;-77
2022/11/20 09:18:33;;;;;;;2.75;2.50;;;23.70;87.80;;;;;;5069055;28;20222;-77
2022/11/20 09:21:01;;;;;;;2.20;2.10;;;24.70;81.20;;;;;;5059562;28;20200;-75
2022/11/20 09:23:32;;;;;;;2.80;2.15;;;25.30;76.80;;;;;;5063696;28;20218;-75
2022/11/20 09:26:02;;;;;;;2.78;2.50;;;25.40;71.40;;;;;;5067554;28;20285;-76
2022/11/20 09:28:29;;;;;;;3.10;2.80;;;25.00;72.50;;;;;;5064348;28;20738;-80
2022/11/20 09:30:58;;;;;;;2.72;2.30;;;24.10;73.80;;;;;;5068516;28;20190;-76
2022/11/20 09:33:25;;;;;;;2.25;2.10;;;22.80;76.40;;;;;;5066821;28;20214;-77
2022/11/20 09:35:52;;;;;;;3.95;2.50;;;21.40;80.60;;;;;;5064572;28;20198;-75
2022/11/20 09:38:20;;;;;;;2.42;2.22;;;20.10;85.30;;;;;;5071136;28;20703;-77
2022/11/20 09:40:55;;;;;;;2.63;2.42;;;19.00;89.40;;;;;;5068136;28;20202;-78
2022/11/20 09:43:34;;;;;;;2.88;2.67;;;18.30;91.80;;;;;;5068724;28;20224;-77
2022/11/20 09:46:15;;;;;;;2.97;2.78;;;17.80;93.10;;;;;;5068625;28;20201;-78
2022/11/20 09:50:24;;;;;;;2.85;2.65;;;17.20;94.20;;;;;;5112339;27;20804;-72
2022/11/20 09:53:04;;;;;;;3.25;2.95;;;17.20;96.60;;;;;;5086213;28;20242;-72
2022/11/20 09:55:32;;;;;;;3.35;3.05;;;17.20;97.30;;;;;;5068572;28;20702;-72
2022/11/20 09:58:00;;;;;;;4.20;3.63;;;16.90;98.40;;;;;;5063135;28;20218;-72
2022/11/20 10:00:29;;;;;;;3.60;3.30;;;16.70;99.50;;;;;;5074852;28;20617;-72
2022/11/20 10:03:02;;;;;;;3.55;3.25;;;16.90;99.80;;;;;;5069985;28;21287;-72
2022/11/20 10:05:38;;;;;;;3.55;3.25;;;17.10;99.90;;;;;;5067100;28;20205;-75
2022/11/20 10:08:17;;;;;;;3.65;3.33;;;17.10;99.90;;;;;;5072437;28;20222;-72
2022/11/20 10:10:47;;;;;;;3.33;3.10;;;17.10;99.90;;;;;;5074864;28;20594;-72
2022/11/20 10:13:30;;;;;;;4.53;3.10;;;17.10;99.90;;;;;;5071130;28;20214;-72
2022/11/20 10:16:11;;;;;;;3.35;3.15;;;17.10;99.10;;;;;;5074631;28;20208;-73
2022/11/20 10:18:52;;;;;;;2.58;2.38;;;17.10;98.70;;;;;;5072187;28;20213;-72
2022/11/20 10:21:30;;;;;;;3.03;2.72;;;17.00;98.50;;;;;;5065390;28;20214;-72
2022/11/20 10:24:37;;;;;;;3.85;3.15;;;16.90;99.90;;;;;;5063002;28;20230;-73
2022/11/20 10:27:11;;;;;;;3.15;2.60;;;17.20;99.90;;;;;;5063820;28;20224;-72
2022/11/20 10:29:42;;;;;;;3.78;2.72;;;17.40;99.90;;;;;;5070857;28;20247;-72
2022/11/20 10:32:16;;;;;;;2.45;2.25;;;17.30;99.90;;;;;;5067193;28;20229;-72
2022/11/20 10:34:49;;;;;;;2.80;2.58;;;17.70;99.90;;;;;;5063341;28;20194;-72
2022/11/20 10:37:22;;;;;;;2.90;2.70;;;18.20;99.90;;;;;;5062318;28;20225;-72
2022/11/20 10:39:55;;;;;;;2.83;2.38;;;18.50;99.90;;;;;;5069792;28;20214;-72
2022/11/20 10:42:31;;;;;;;3.22;2.60;;;18.70;99.90;;;;;;5071179;28;20215;-72
2022/11/20 10:45:12;;;;;;;3.00;2.72;;;18.90;99.90;;;;;;5071660;28;20206;-72
2022/11/20 10:47:39;;;;;;;2.80;2.60;;;18.80;99.90;;;;;;5064791;28;20233;-72
2022/11/20 10:50:12;;;;;;;3.22;2.85;;;18.60;99.90;;;;;;5068084;28;20229;-72
2022/11/20 10:52:49;;;;;;;2.92;2.65;;;18.40;99.90;;;;;;5066318;28;20222;-72
2022/11/20 10:55:28;;;;;;;2.92;2.65;;;18.10;99.90;;;;;;5068778;28;20190;-70
2022/11/20 10:58:03;;;;;;;3.22;2.92;;;18.00;99.20;;;;;;5063209;28;20226;-70
2022/11/20 11:00:32;;;;;;;3.17;2.60;;;17.80;99.90;;;;;;5060720;28;20577;-69
2022/11/20 11:03:02;;;;;;;2.40;2.25;;;18.10;99.90;;;;;;5060163;28;20711;-69
2022/11/20 11:05:44;;;;;;;2.45;2.25;;;18.20;99.90;;;;;;5051881;28;20210;-68
2022/11/20 11:08:17;;;;;;;2.63;2.42;;;17.90;97.20;;;;;;5055513;28;20241;-69
2022/11/20 11:10:52;;;;;;;3.00;2.50;;;17.70;98.00;;;;;;5054025;28;20210;-68
2022/11/20 11:13:23;;;;;;;2.53;2.33;;;17.90;98.00;;;;;;5053198;28;20271;-69
2022/11/20 11:15:50;;;;;;;2.10;1.98;;;17.90;97.80;;;;;;5063071;28;20206;-69
2022/11/20 11:18:26;;;;;;;3.30;2.38;;;17.80;97.40;;;;;;5055254;28;20219;-68
2022/11/20 11:20:54;;;;;;;2.20;2.10;;;17.40;96.10;;;;;;5059960;28;20269;-69
2022/11/20 11:23:41;;;;;;;2.78;2.58;;;17.20;96.60;;;;;;5049781;28;20225;-69
2022/11/20 11:26:20;;;;;;;2.30;2.10;;;17.10;97.00;;;;;;5056170;28;20197;-70
2022/11/20 11:28:54;;;;;;;2.40;2.30;;;17.00;96.40;;;;;;5057810;28;20222;-69
2022/11/20 11:31:24;;;;;;;2.58;2.25;;;16.90;97.30;;;;;;5058410;28;20326;-69
2022/11/20 11:33:51;;;;;;;2.10;2.00;;;16.80;97.10;;;;;;5054295;28;20226;-69
2022/11/20 11:36:21;;;;;;;2.47;2.10;;;16.50;97.30;;;;;;5060525;28;20214;-68
2022/11/20 11:38:53;;;;;;;2.30;2.10;;;16.60;97.40;;;;;;5059821;28;20802;-69
2022/11/20 11:41:24;;;;;;;2.42;2.22;;;16.70;97.30;;;;;;5057525;28;20266;-69
2022/11/20 11:46:40;;;;;;;2.08;1.88;;;16.80;97.70;;;;;;5052217;28;20659;-69
2022/11/20 11:49:18;;;;;;;2.70;2.50;;;16.90;97.60;;;;;;5057370;28;20225;-69
2022/11/20 11:52:03;;;;;;;3.35;2.50;;;16.90;96.80;;;;;;5060955;28;20194;-68
2022/11/20 11:54:36;;;;;;;2.60;2.20;;;16.80;96.80;;;;;;5050890;28;20198;-68
2022/11/20 11:57:13;;;;;;;2.63;2.42;;;16.90;97.10;;;;;;5052578;28;20257;-69
2022/11/20 11:59:52;;;;;;;2.40;2.20;;;16.80;97.00;;;;;;5049847;28;20215;-69
2022/11/20 12:02:32;;;;;;;2.30;2.20;;;16.80;97.40;;;;;;5058320;28;20245;-69
2022/11/20 12:05:04;;;;;;;2.70;2.33;;;16.90;97.10;;;;;;5057449;28;20203;-69
2022/11/20 12:07:40;;;;;;;2.45;2.25;;;16.90;97.40;;;;;;5052103;28;20218;-69
2022/11/20 12:10:17;;;;;;;2.40;2.20;;;16.70;97.30;;;;;;5059585;28;20249;-69
2022/11/20 12:12:49;;;;;;;2.17;2.08;;;16.80;97.60;;;;;;5062789;28;20225;-69
2022/11/20 12:15:30;;;;;;;2.25;2.15;;;16.70;97.90;;;;;;5058129;28;20202;-69
2022/11/20 12:17:57;;;;;;;2.55;2.20;;;16.60;97.80;;;;;;5063030;28;20648;-68
2022/11/20 12:20:30;;;;;;;2.10;2.00;;;16.50;98.10;;;;;;5058376;28;20689;-69
2022/11/20 12:23:05;;;;;;;2.40;2.20;;;16.60;98.10;;;;;;5054590;28;20225;-68
2022/11/20 12:25:36;;;;;;;2.03;1.92;;;16.50;98.60;;;;;;5057674;28;20565;-68
2022/11/20 12:28:21;;;;;;;1.83;1.73;;;16.50;97.60;;;;;;5059783;28;20651;-68
2022/11/20 12:31:03;;;;;;;1.98;1.83;;;16.50;98.00;;;;;;5058863;28;20223;-68
2022/11/20 12:33:52;;;;;;;2.13;1.92;;;16.50;98.20;;;;;;5045124;22;20583;-71
2022/11/20 12:36:29;;;;;;;2.45;2.20;;;16.60;97.30;;;;;;5009193;28;20203;-72
2022/11/20 12:39:32;;;;;;;1.90;1.80;;;16.60;97.90;;;;;;5013698;28;20282;-72
2022/11/20 12:45:16;;;;;;;1.80;1.70;;;16.70;98.00;;;;;;5005352;28;20215;-72
2022/11/20 12:48:08;;;;;;;2.30;2.05;;;16.70;97.60;;;;;;4999197;28;20226;-71
2022/11/20 12:50:47;;;;;;;1.88;1.70;;;16.60;97.40;;;;;;5007849;28;20220;-72
2022/11/20 12:53:28;;;;;;;2.28;2.08;;;16.50;96.90;;;;;;5000699;28;20220;-72
2022/11/20 12:56:03;;;;;;;2.00;1.80;;;16.20;97.30;;;;;;5014207;23;20224;-76
2022/11/20 12:58:40;;;;;;;1.70;1.60;;;16.20;98.00;;;;;;5004678;28;20219;-76
2022/11/20 13:01:39;;;;;;;2.17;1.88;;;16.20;97.80;;;;;;5007149;28;20582;-76
2022/11/20 13:04:14;;;;;;;2.05;1.90;;;16.00;97.70;;;;;;5008894;28;20258;-76
2022/11/20 13:06:42;;;;;;;2.10;2.00;;;16.00;98.10;;;;;;5006316;28;20203;-76
2022/11/20 13:09:14;;;;;;;2.13;1.92;;;16.00;98.20;;;;;;5010207;28;20298;-76
2022/11/20 13:11:46;;;;;;;2.00;1.80;;;16.10;97.60;;;;;;5005500;28;20203;-76
2022/11/20 13:14:27;;;;;;;2.92;1.83;;;16.10;97.60;;;;;;5014706;28;20283;-76
2022/11/20 13:17:00;;;;;;;1.85;1.75;;;16.20;96.50;;;;;;5006375;28;20642;-76
2022/11/20 13:19:28;;;;;;;1.75;1.65;;;16.10;97.30;;;;;;4991102;28;20190;-76
2022/11/20 13:21:55;;;;;;;1.80;1.70;;;16.20;97.70;;;;;;4986899;28;20224;-76
2022/11/20 13:24:26;;;;;;;2.53;1.42;;;16.20;97.80;;;;;;4986369;28;20220;-76
2022/11/20 13:27:19;;;;;;;1.98;1.88;;;16.10;97.90;;;;;;4985938;28;20830;-76